Time;durP1;ratioP1;P1;durP2;ratioP2;P2;SDS_P1;SDS_P2;PMS_P1;PMS_P2;Temp;Humidity;BMP_temperature;BMP_pressure;BME280_temperature;BME280_humidity;BME280_pressure;Samples;Min_cycle;Max_cycle;Signal;HPM_P1;HPM_P2
2023/03/21 00:00:10;;;;;;;54.05;36.95;;;9.50;99.90;;;;;;5030130;28;20266;-69
2023/03/21 00:02:37;;;;;;;57.45;37.03;;;9.40;99.90;;;;;;5031550;28;20214;-71
2023/03/21 00:05:04;;;;;;;53.92;35.58;;;9.30;99.90;;;;;;5030424;28;20216;-72
2023/03/21 00:07:33;;;;;;;52.90;36.70;;;9.30;99.90;;;;;;5031138;28;20204;-71
2023/03/21 00:10:00;;;;;;;47.88;34.28;;;9.30;99.90;;;;;;5030550;28;20254;-70
2023/03/21 00:12:31;;;;;;;49.25;37.60;;;9.30;99.90;;;;;;5030385;28;20213;-70
2023/03/21 00:15:03;;;;;;;47.78;32.88;;;9.40;99.90;;;;;;5032116;28;20254;-70
2023/03/21 00:17:31;;;;;;;46.80;33.95;;;9.50;99.90;;;;;;5031987;28;20200;-70
2023/03/21 00:19:59;;;;;;;46.75;32.72;;;9.40;99.90;;;;;;5034153;28;20287;-71
2023/03/21 00:22:26;;;;;;;46.53;34.80;;;9.40;99.90;;;;;;5033890;28;20208;-69
2023/03/21 00:24:55;;;;;;;42.70;31.83;;;9.40;99.90;;;;;;5035580;28;20248;-70
2023/03/21 00:27:22;;;;;;;53.97;35.22;;;9.40;99.90;;;;;;5033734;28;20193;-73
2023/03/21 00:29:49;;;;;;;47.05;33.28;;;9.40;99.90;;;;;;5034430;28;20307;-72
2023/03/21 00:32:18;;;;;;;46.55;31.90;;;9.50;99.90;;;;;;5034823;28;20223;-70
2023/03/21 00:34:45;;;;;;;51.42;33.13;;;9.40;99.90;;;;;;5031321;28;20293;-72
2023/03/21 00:37:15;;;;;;;51.50;33.65;;;9.30;99.90;;;;;;5029854;28;20206;-71
2023/03/21 00:39:42;;;;;;;46.55;32.88;;;9.40;99.90;;;;;;5023967;28;20204;-71
2023/03/21 00:42:11;;;;;;;42.92;32.97;;;9.40;99.90;;;;;;5030276;28;20210;-70
2023/03/21 00:44:39;;;;;;;42.63;32.58;;;9.40;99.90;;;;;;5026882;28;20229;-70
2023/03/21 00:47:06;;;;;;;48.53;34.88;;;9.40;99.90;;;;;;5031952;28;20259;-70
2023/03/21 00:49:33;;;;;;;51.97;35.10;;;9.40;99.90;;;;;;5027647;28;20284;-71
2023/03/21 00:52:00;;;;;;;48.83;32.53;;;9.40;99.90;;;;;;5026484;28;20208;-72
2023/03/21 00:54:27;;;;;;;46.17;33.45;;;9.40;99.90;;;;;;5030053;28;20307;-71
2023/03/21 00:56:54;;;;;;;51.15;32.00;;;9.40;99.90;;;;;;5024947;28;20273;-70
2023/03/21 00:59:24;;;;;;;48.63;33.88;;;9.40;99.90;;;;;;5029831;28;20271;-69
2023/03/21 01:01:52;;;;;;;50.67;33.90;;;9.40;99.90;;;;;;5028953;28;20232;-70
2023/03/21 01:04:20;;;;;;;45.25;32.30;;;9.40;99.90;;;;;;5023117;28;20252;-70
2023/03/21 01:06:47;;;;;;;50.78;33.55;;;9.40;99.90;;;;;;5026373;28;20240;-70
2023/03/21 01:09:16;;;;;;;43.45;32.88;;;9.40;99.90;;;;;;5030122;28;20610;-72
2023/03/21 01:11:45;;;;;;;46.25;34.60;;;9.50;99.90;;;;;;5034539;28;20654;-72
2023/03/21 01:14:13;;;;;;;48.92;34.63;;;9.50;99.90;;;;;;5023170;28;20306;-69
2023/03/21 01:16:42;;;;;;;47.60;33.50;;;9.50;99.90;;;;;;5027326;28;20213;-70
2023/03/21 01:19:11;;;;;;;46.70;32.55;;;9.40;99.90;;;;;;5032847;28;20297;-71
2023/03/21 01:21:39;;;;;;;48.85;35.30;;;9.50;99.90;;;;;;5027347;28;20619;-70
2023/03/21 01:24:06;;;;;;;42.15;32.75;;;9.50;99.90;;;;;;5026352;28;20308;-71
2023/03/21 01:26:33;;;;;;;42.78;32.75;;;9.50;99.90;;;;;;5028469;28;20691;-72
2023/03/21 01:29:00;;;;;;;41.35;31.25;;;9.60;99.90;;;;;;5032176;28;20222;-71
2023/03/21 01:31:27;;;;;;;43.53;30.80;;;9.60;99.90;;;;;;5030260;28;20750;-71
2023/03/21 01:33:56;;;;;;;50.13;33.22;;;9.70;99.90;;;;;;5028907;28;20220;-70
2023/03/21 01:36:25;;;;;;;50.10;33.47;;;9.60;99.90;;;;;;5034173;28;20209;-70
2023/03/21 01:38:53;;;;;;;43.70;32.08;;;9.60;99.90;;;;;;5027333;28;20225;-71
2023/03/21 01:41:24;;;;;;;44.40;34.70;;;9.60;99.90;;;;;;5032846;28;20196;-71
2023/03/21 01:43:52;;;;;;;51.13;35.63;;;9.60;99.90;;;;;;5034124;28;20278;-70
2023/03/21 01:46:40;;;;;;;50.00;33.58;;;9.60;99.90;;;;;;5033725;28;20196;-71
2023/03/21 01:49:15;;;;;;;40.42;30.48;;;9.50;99.90;;;;;;5033706;28;20299;-72
2023/03/21 01:51:46;;;;;;;45.95;34.33;;;9.50;99.90;;;;;;5031177;28;20220;-71
2023/03/21 01:54:17;;;;;;;52.97;37.33;;;9.50;99.90;;;;;;5029264;28;20234;-69
2023/03/21 01:56:46;;;;;;;41.45;31.60;;;9.50;99.90;;;;;;5033823;28;20638;-71
2023/03/21 01:59:20;;;;;;;51.70;33.88;;;9.60;99.90;;;;;;5030592;28;20335;-71
2023/03/21 02:01:48;;;;;;;51.15;34.55;;;9.50;99.90;;;;;;5022550;28;20204;-70
2023/03/21 02:04:20;;;;;;;48.83;35.08;;;9.50;99.90;;;;;;5026616;28;20256;-70
2023/03/21 02:06:52;;;;;;;49.28;35.53;;;9.50;99.90;;;;;;5031991;28;20203;-69
2023/03/21 02:09:22;;;;;;;51.55;34.40;;;9.60;99.90;;;;;;5028676;28;20290;-70
2023/03/21 02:11:49;;;;;;;59.72;38.17;;;9.60;99.90;;;;;;5029131;28;20586;-70
2023/03/21 02:14:19;;;;;;;52.75;37.03;;;9.70;99.90;;;;;;5040278;28;20666;-70
2023/03/21 02:16:56;;;;;;;49.30;36.38;;;9.70;99.90;;;;;;5033145;28;20194;-69
2023/03/21 02:20:00;;;;;;;48.17;34.92;;;9.70;99.90;;;;;;5032285;28;20210;-69
2023/03/21 02:30:23;;;;;;;53.80;36.13;;;9.90;99.90;;;;;;4973918;28;20309;-71
2023/03/21 03:43:41;;;;;;;62.50;42.65;;;9.80;99.90;;;;;;5029747;28;20234;-71
2023/03/21 03:46:12;;;;;;;68.15;42.53;;;9.80;99.90;;;;;;5026101;28;20243;-71
2023/03/21 03:48:45;;;;;;;82.60;41.53;;;9.90;99.90;;;;;;5032377;28;20206;-70
2023/03/21 03:51:19;;;;;;;77.63;43.72;;;9.70;99.90;;;;;;5029581;28;20223;-70
2023/03/21 03:53:53;;;;;;;85.78;43.38;;;9.80;99.90;;;;;;5064413;22;21322;-76
2023/03/21 03:56:22;;;;;;;75.20;43.60;;;9.80;99.90;;;;;;5017124;28;20671;-76
2023/03/21 03:58:50;;;;;;;80.15;42.13;;;9.90;99.90;;;;;;5015959;28;20205;-76
2023/03/21 04:01:17;;;;;;;81.35;44.13;;;9.90;99.90;;;;;;5025668;28;20293;-75
2023/03/21 04:03:47;;;;;;;70.82;43.30;;;9.90;99.90;;;;;;5022220;28;20227;-75
2023/03/21 04:06:15;;;;;;;68.28;41.65;;;9.80;99.90;;;;;;5043218;28;20213;-75
2023/03/21 04:08:42;;;;;;;85.47;45.80;;;9.80;99.90;;;;;;5037814;28;20231;-75
2023/03/21 04:11:10;;;;;;;89.50;48.28;;;9.90;99.90;;;;;;5038883;28;20229;-75
2023/03/21 04:13:37;;;;;;;78.57;42.88;;;9.90;99.90;;;;;;5042796;28;20513;-75
2023/03/21 04:16:06;;;;;;;73.57;44.63;;;9.90;99.90;;;;;;5046156;28;20602;-75
2023/03/21 04:18:32;;;;;;;91.80;44.58;;;9.90;99.90;;;;;;5040142;28;20682;-75
2023/03/21 04:21:00;;;;;;;81.47;43.95;;;9.90;99.90;;;;;;5037458;28;20654;-75
2023/03/21 04:23:28;;;;;;;77.22;45.65;;;9.90;99.90;;;;;;5051899;28;20199;-75
2023/03/21 04:25:55;;;;;;;77.90;46.72;;;9.90;99.90;;;;;;5047283;28;20197;-75
2023/03/21 04:28:22;;;;;;;72.72;42.88;;;9.80;99.90;;;;;;5029716;28;20288;-76
2023/03/21 04:30:50;;;;;;;101.82;49.40;;;9.70;99.90;;;;;;5042189;28;20312;-75
2023/03/21 04:33:18;;;;;;;76.13;46.75;;;9.80;99.90;;;;;;5037385;28;20206;-76
2023/03/21 04:35:45;;;;;;;67.25;44.30;;;9.80;99.90;;;;;;5043914;28;20206;-76
2023/03/21 04:38:12;;;;;;;74.75;45.55;;;9.90;99.90;;;;;;5041307;28;20217;-75
2023/03/21 04:40:39;;;;;;;78.40;44.50;;;9.90;99.90;;;;;;5036296;28;20212;-76
2023/03/21 04:43:07;;;;;;;78.00;43.50;;;9.90;99.90;;;;;;5037946;28;20302;-75
2023/03/21 04:45:33;;;;;;;94.88;47.80;;;9.90;99.90;;;;;;5039798;28;20244;-75
2023/03/21 04:48:00;;;;;;;80.05;44.78;;;9.90;99.90;;;;;;5052920;28;20201;-75
2023/03/21 04:50:28;;;;;;;76.80;42.55;;;9.90;99.90;;;;;;5036526;28;20200;-75
2023/03/21 04:52:55;;;;;;;87.00;45.75;;;10.00;99.90;;;;;;5050204;28;20287;-75
2023/03/21 04:55:23;;;;;;;86.32;45.28;;;10.10;99.90;;;;;;5038082;28;20291;-76
2023/03/21 04:57:50;;;;;;;64.50;44.20;;;10.00;99.90;;;;;;5040744;28;20211;-75
2023/03/21 05:00:18;;;;;;;73.97;41.42;;;10.00;99.90;;;;;;5036407;28;20283;-75
2023/03/21 05:02:45;;;;;;;68.13;42.88;;;10.10;99.90;;;;;;5036444;28;20224;-75
2023/03/21 05:05:12;;;;;;;78.03;44.60;;;10.10;99.90;;;;;;5043689;28;20873;-75
2023/03/21 05:07:41;;;;;;;71.95;41.72;;;10.20;99.90;;;;;;5049944;28;20224;-75
2023/03/21 05:10:11;;;;;;;68.63;42.38;;;10.20;99.90;;;;;;5040412;28;20206;-74
2023/03/21 05:12:38;;;;;;;61.95;35.97;;;10.10;99.90;;;;;;5040275;28;20236;-76
2023/03/21 05:15:05;;;;;;;68.15;41.15;;;10.20;99.90;;;;;;5047573;28;20227;-76
2023/03/21 05:17:32;;;;;;;76.53;41.03;;;10.20;99.90;;;;;;5039027;28;20200;-76
2023/03/21 05:19:59;;;;;;;55.50;36.17;;;10.10;99.90;;;;;;5044433;28;20640;-75
2023/03/21 05:22:27;;;;;;;55.05;37.90;;;10.20;99.90;;;;;;5047011;28;20335;-76
2023/03/21 05:24:56;;;;;;;63.08;39.95;;;10.20;99.90;;;;;;5038527;28;20216;-75
2023/03/21 05:27:35;;;;;;;60.47;37.40;;;10.20;99.90;;;;;;5034231;28;20216;-76
2023/03/21 05:30:06;;;;;;;65.15;37.53;;;10.20;99.90;;;;;;5035248;28;20201;-75
2023/03/21 05:32:33;;;;;;;61.78;37.15;;;10.30;99.90;;;;;;5036368;28;20553;-76
2023/03/21 05:35:00;;;;;;;65.63;35.42;;;10.30;99.90;;;;;;5041135;28;20226;-75
2023/03/21 05:37:27;;;;;;;57.95;38.30;;;10.20;99.90;;;;;;5041789;28;20211;-76
2023/03/21 05:39:56;;;;;;;56.58;33.95;;;10.30;99.90;;;;;;5034619;28;20201;-75
2023/03/21 05:42:23;;;;;;;52.97;35.55;;;10.30;99.90;;;;;;5039748;28;20677;-75
2023/03/21 05:44:50;;;;;;;66.35;38.92;;;10.30;99.90;;;;;;5034770;28;20244;-76
2023/03/21 05:47:17;;;;;;;55.42;34.72;;;10.30;99.90;;;;;;5042016;28;20292;-76
2023/03/21 05:49:45;;;;;;;64.95;36.65;;;10.20;99.90;;;;;;5035429;28;20210;-77
2023/03/21 05:52:12;;;;;;;58.53;34.92;;;10.30;99.90;;;;;;5043409;28;20643;-76
2023/03/21 05:54:39;;;;;;;57.50;34.47;;;10.30;99.90;;;;;;5035771;28;20248;-76
2023/03/21 05:57:08;;;;;;;67.03;33.95;;;10.30;99.90;;;;;;5034052;28;20250;-75
2023/03/21 05:59:35;;;;;;;70.60;35.47;;;10.30;99.90;;;;;;5039859;28;20709;-75
2023/03/21 06:02:03;;;;;;;68.10;36.40;;;10.40;99.90;;;;;;5040642;28;20253;-76
2023/03/21 06:04:30;;;;;;;71.70;37.83;;;10.30;99.90;;;;;;5046232;28;20238;-78
2023/03/21 06:06:56;;;;;;;64.90;34.95;;;10.40;99.90;;;;;;5041478;28;20212;-75
2023/03/21 06:09:24;;;;;;;60.03;34.40;;;10.40;99.90;;;;;;5039543;28;20572;-77
2023/03/21 06:11:54;;;;;;;60.10;34.70;;;10.40;99.90;;;;;;5026863;28;20220;-75
2023/03/21 06:14:23;;;;;;;52.45;33.00;;;10.40;99.90;;;;;;5037475;28;20228;-77
2023/03/21 06:16:52;;;;;;;47.17;30.75;;;10.40;99.90;;;;;;5044746;28;20208;-76
2023/03/21 06:19:19;;;;;;;66.57;36.13;;;10.40;99.90;;;;;;5047357;28;20234;-77
2023/03/21 06:21:46;;;;;;;66.35;35.45;;;10.50;99.90;;;;;;5040762;28;20262;-76
2023/03/21 06:24:13;;;;;;;56.33;31.83;;;10.50;99.90;;;;;;5056946;28;20290;-76
2023/03/21 06:26:41;;;;;;;51.28;31.38;;;10.60;99.90;;;;;;5055043;28;20204;-76
2023/03/21 06:29:08;;;;;;;54.80;34.28;;;10.60;99.90;;;;;;5054365;28;20218;-76
2023/03/21 06:31:36;;;;;;;56.33;31.67;;;10.60;99.90;;;;;;5051832;28;20451;-76
2023/03/21 06:34:03;;;;;;;51.47;33.47;;;10.60;99.90;;;;;;5056036;28;20780;-81
2023/03/21 06:36:30;;;;;;;49.30;31.88;;;10.70;99.90;;;;;;5061386;28;20211;-76
2023/03/21 06:38:57;;;;;;;51.80;29.60;;;10.80;99.90;;;;;;5051218;28;20211;-76
2023/03/21 06:41:23;;;;;;;48.13;30.85;;;10.80;99.90;;;;;;5054513;28;20202;-76
2023/03/21 06:43:50;;;;;;;56.90;32.25;;;10.80;99.90;;;;;;5049715;28;20236;-76
2023/03/21 06:46:17;;;;;;;48.47;30.27;;;10.80;99.90;;;;;;5058690;28;20217;-77
2023/03/21 06:48:45;;;;;;;45.00;28.65;;;10.80;99.90;;;;;;5048985;28;20221;-76
2023/03/21 06:51:13;;;;;;;46.95;29.50;;;10.80;99.90;;;;;;5050382;28;20595;-77
2023/03/21 06:53:40;;;;;;;44.55;29.23;;;10.80;99.90;;;;;;5052864;28;20273;-76
2023/03/21 06:56:09;;;;;;;53.70;29.63;;;10.80;99.90;;;;;;5055435;28;20214;-77
2023/03/21 06:58:36;;;;;;;54.15;29.52;;;10.80;99.90;;;;;;5056194;28;20197;-77
2023/03/21 07:01:03;;;;;;;51.85;30.50;;;10.90;99.90;;;;;;5057901;28;20203;-75
2023/03/21 07:03:31;;;;;;;46.47;29.38;;;10.90;99.90;;;;;;5051753;28;20221;-77
2023/03/21 07:06:03;;;;;;;50.40;30.13;;;10.90;99.90;;;;;;5050132;28;20197;-76
2023/03/21 07:08:30;;;;;;;44.13;28.13;;;10.90;99.90;;;;;;5049619;28;20293;-81
2023/03/21 07:10:57;;;;;;;41.13;27.30;;;10.80;99.90;;;;;;5064730;28;20229;-76
2023/03/21 07:13:24;;;;;;;38.70;27.20;;;10.90;99.90;;;;;;5062686;28;20223;-76
2023/03/21 07:15:52;;;;;;;41.40;28.05;;;10.90;99.90;;;;;;5056782;28;20212;-75
2023/03/21 07:18:19;;;;;;;47.20;28.08;;;11.10;99.90;;;;;;5055132;28;20255;-76
2023/03/21 07:20:49;;;;;;;43.70;29.85;;;10.90;99.90;;;;;;5043705;28;20234;-75
2023/03/21 07:23:20;;;;;;;47.42;26.02;;;11.10;99.90;;;;;;5046872;28;20210;-80
2023/03/21 07:25:48;;;;;;;41.63;26.30;;;11.10;99.90;;;;;;5054960;28;20257;-79
2023/03/21 07:28:15;;;;;;;57.80;30.13;;;11.00;99.90;;;;;;5053711;28;20269;-79
2023/03/21 07:30:42;;;;;;;41.88;27.83;;;11.00;99.90;;;;;;5055630;28;20217;-77
2023/03/21 07:33:11;;;;;;;39.80;26.17;;;11.10;99.90;;;;;;5051405;28;20315;-78
2023/03/21 07:35:38;;;;;;;46.53;27.90;;;10.90;99.90;;;;;;5058667;28;20221;-80
2023/03/21 07:38:05;;;;;;;34.22;24.52;;;11.00;99.90;;;;;;5051162;28;20231;-77
2023/03/21 07:40:34;;;;;;;41.70;25.90;;;11.10;99.90;;;;;;5051383;28;20279;-80
2023/03/21 07:43:01;;;;;;;36.60;25.85;;;11.10;99.90;;;;;;5054133;28;20223;-78
2023/03/21 07:45:28;;;;;;;42.88;25.33;;;11.20;99.90;;;;;;5052346;28;21139;-78
2023/03/21 07:47:56;;;;;;;34.95;24.63;;;11.30;99.90;;;;;;5052804;28;20233;-80
2023/03/21 07:50:23;;;;;;;39.65;24.90;;;11.30;99.90;;;;;;5053030;28;20231;-79
2023/03/21 07:52:50;;;;;;;38.72;24.80;;;11.30;99.90;;;;;;5052698;28;20280;-81
2023/03/21 07:55:17;;;;;;;37.97;27.73;;;11.30;99.90;;;;;;5054610;28;20241;-78
2023/03/21 07:57:45;;;;;;;36.58;25.75;;;11.30;99.90;;;;;;5040666;28;20215;-78
2023/03/21 08:00:21;;;;;;;35.92;25.83;;;11.40;99.90;;;;;;5053842;28;20217;-79
2023/03/21 08:02:49;;;;;;;42.00;25.67;;;11.40;99.90;;;;;;5056445;28;20191;-78
2023/03/21 08:05:18;;;;;;;40.03;26.13;;;11.30;99.90;;;;;;5053108;28;20223;-79
2023/03/21 08:07:45;;;;;;;30.73;23.45;;;11.30;99.90;;;;;;5050875;28;20192;-79
2023/03/21 08:10:12;;;;;;;34.50;25.20;;;11.40;99.90;;;;;;5057855;28;20217;-78
2023/03/21 08:12:39;;;;;;;40.90;24.75;;;11.30;99.90;;;;;;5049507;28;20261;-79
2023/03/21 08:15:09;;;;;;;38.08;24.77;;;11.30;99.90;;;;;;5067215;28;20230;-79
2023/03/21 08:17:36;;;;;;;37.25;23.65;;;11.30;99.90;;;;;;5051435;28;20243;-80
2023/03/21 08:20:07;;;;;;;37.20;26.63;;;11.10;99.90;;;;;;5058456;28;20195;-79
2023/03/21 08:22:35;;;;;;;35.95;26.48;;;11.20;99.90;;;;;;5051590;28;20271;-79
2023/03/21 08:25:03;;;;;;;38.55;27.95;;;11.20;99.90;;;;;;5052780;28;20246;-79
2023/03/21 08:27:30;;;;;;;39.63;26.35;;;11.20;99.90;;;;;;5048133;28;20231;-80
2023/03/21 08:29:58;;;;;;;43.60;26.80;;;11.20;99.90;;;;;;5049462;28;20236;-80
2023/03/21 08:32:29;;;;;;;28.20;23.73;;;11.20;99.90;;;;;;5052666;28;20230;-78
2023/03/21 08:34:57;;;;;;;38.22;25.48;;;11.10;99.90;;;;;;5039289;28;20226;-81
2023/03/21 08:37:25;;;;;;;40.50;26.40;;;11.30;99.90;;;;;;5049056;28;20236;-78
2023/03/21 08:39:53;;;;;;;39.13;26.33;;;11.30;99.90;;;;;;5046747;28;20207;-80
2023/03/21 08:42:20;;;;;;;33.72;25.58;;;11.40;99.90;;;;;;5058229;28;20628;-80
2023/03/21 08:44:48;;;;;;;32.60;23.27;;;11.50;99.90;;;;;;5051177;28;20236;-81
2023/03/21 08:47:15;;;;;;;34.90;25.02;;;11.30;99.90;;;;;;5055639;28;20199;-79
2023/03/21 08:49:44;;;;;;;33.13;24.83;;;11.40;99.90;;;;;;5056226;28;20264;-78
2023/03/21 08:52:11;;;;;;;31.38;25.27;;;11.40;99.90;;;;;;5057100;28;20219;-80
2023/03/21 08:54:39;;;;;;;41.40;25.35;;;11.30;99.90;;;;;;5046890;28;20230;-83
2023/03/21 08:57:07;;;;;;;33.55;22.75;;;11.50;99.90;;;;;;5050998;28;20222;-80
2023/03/21 08:59:34;;;;;;;36.00;24.90;;;11.50;99.90;;;;;;5047251;28;20237;-79
2023/03/21 09:02:01;;;;;;;32.63;22.52;;;11.50;99.90;;;;;;5048579;28;20211;-78
2023/03/21 09:04:29;;;;;;;36.03;23.83;;;11.50;99.90;;;;;;5054400;28;20288;-77
2023/03/21 09:07:00;;;;;;;28.98;23.27;;;11.40;99.90;;;;;;5046807;28;20574;-78
2023/03/21 09:09:27;;;;;;;37.15;23.95;;;11.40;99.90;;;;;;5045723;28;20576;-78
2023/03/21 09:11:54;;;;;;;31.20;23.75;;;11.40;99.90;;;;;;5046865;28;20246;-79
2023/03/21 09:14:21;;;;;;;28.65;22.60;;;11.50;99.90;;;;;;5044851;28;20232;-78
2023/03/21 09:16:48;;;;;;;34.83;22.88;;;11.50;99.90;;;;;;5053083;28;20269;-78
2023/03/21 09:19:16;;;;;;;37.08;24.27;;;11.40;99.90;;;;;;5045182;28;20277;-78
2023/03/21 09:21:44;;;;;;;30.63;21.80;;;11.30;99.90;;;;;;5055997;28;20204;-78
2023/03/21 09:24:14;;;;;;;32.75;20.73;;;11.40;99.90;;;;;;5064335;28;20233;-79
2023/03/21 09:26:42;;;;;;;29.67;23.00;;;11.30;99.90;;;;;;5036544;28;20276;-78
2023/03/21 09:29:10;;;;;;;32.58;22.30;;;11.40;99.90;;;;;;5041819;28;20213;-78
2023/03/21 09:31:38;;;;;;;33.38;21.77;;;11.30;99.90;;;;;;5048854;28;20209;-78
2023/03/21 09:34:06;;;;;;;23.13;19.58;;;11.40;99.90;;;;;;5049703;28;20229;-77
2023/03/21 09:36:34;;;;;;;22.50;17.27;;;11.50;99.90;;;;;;5052589;28;20578;-79
2023/03/21 09:39:03;;;;;;;22.45;17.85;;;11.40;99.90;;;;;;5054772;28;20222;-79
2023/03/21 09:41:56;;;;;;;24.83;18.40;;;11.30;99.90;;;;;;5047415;28;20210;-78
2023/03/21 09:44:32;;;;;;;25.98;16.40;;;11.30;99.90;;;;;;5044219;28;20222;-78
2023/03/21 09:47:05;;;;;;;24.73;18.30;;;11.40;99.90;;;;;;5047582;28;20206;-78
2023/03/21 09:49:38;;;;;;;27.73;18.63;;;11.40;99.90;;;;;;5053062;28;20207;-78
2023/03/21 09:52:12;;;;;;;31.33;18.95;;;11.30;99.90;;;;;;5050406;28;20244;-77
2023/03/21 09:54:43;;;;;;;23.67;18.55;;;11.40;99.90;;;;;;5064350;28;20237;-79
2023/03/21 09:57:19;;;;;;;22.25;15.93;;;11.40;99.90;;;;;;5052775;28;20237;-78
2023/03/21 09:59:48;;;;;;;20.58;15.93;;;11.50;99.90;;;;;;5047141;28;20205;-78
2023/03/21 10:02:34;;;;;;;26.38;17.25;;;11.50;99.90;;;;;;5053193;28;20339;-80
2023/03/21 10:05:05;;;;;;;24.73;17.40;;;11.50;99.90;;;;;;5049784;28;20253;-77
2023/03/21 10:07:43;;;;;;;29.17;17.85;;;11.60;99.90;;;;;;5050739;28;20209;-77
2023/03/21 10:10:16;;;;;;;27.58;18.25;;;11.60;99.90;;;;;;5056814;28;20240;-80
2023/03/21 10:12:47;;;;;;;26.75;18.50;;;11.70;99.90;;;;;;5052764;28;20580;-78
2023/03/21 10:15:17;;;;;;;27.88;17.38;;;11.70;99.90;;;;;;5044611;28;20234;-78
2023/03/21 10:17:50;;;;;;;26.95;19.90;;;11.60;99.90;;;;;;5051905;28;20250;-77
2023/03/21 10:20:20;;;;;;;25.55;18.85;;;11.60;99.90;;;;;;5051630;28;20210;-77
2023/03/21 10:22:49;;;;;;;29.20;20.67;;;11.60;99.90;;;;;;5052246;28;20199;-77
2023/03/21 10:25:19;;;;;;;25.92;19.88;;;11.70;99.90;;;;;;5049804;28;20294;-79
2023/03/21 10:27:50;;;;;;;26.25;18.92;;;11.70;99.90;;;;;;5046479;28;20207;-78
2023/03/21 10:30:32;;;;;;;27.80;19.77;;;11.60;99.90;;;;;;5049333;28;20301;-78
2023/03/21 10:33:03;;;;;;;38.33;23.13;;;11.50;99.90;;;;;;5043680;28;20228;-77
2023/03/21 10:35:32;;;;;;;30.00;20.90;;;11.40;99.90;;;;;;5046285;28;20232;-79
2023/03/21 10:38:00;;;;;;;33.90;21.88;;;11.50;99.90;;;;;;5046968;28;20205;-78
2023/03/21 10:40:27;;;;;;;23.40;17.95;;;11.50;99.90;;;;;;5036255;28;20210;-77
2023/03/21 10:42:57;;;;;;;24.77;18.52;;;11.70;99.90;;;;;;5050051;28;20270;-78
2023/03/21 10:45:25;;;;;;;24.60;18.00;;;11.70;99.90;;;;;;5038220;28;20219;-78
2023/03/21 10:47:54;;;;;;;26.38;17.75;;;11.70;99.90;;;;;;5046664;28;20207;-78
2023/03/21 10:50:24;;;;;;;26.73;18.55;;;11.80;99.90;;;;;;5046992;28;20207;-77
2023/03/21 10:52:59;;;;;;;25.33;18.02;;;11.90;99.90;;;;;;5035238;28;20211;-78
2023/03/21 10:55:28;;;;;;;22.38;17.85;;;11.80;99.90;;;;;;5041833;28;20292;-79
2023/03/21 10:57:59;;;;;;;23.80;18.17;;;11.80;99.90;;;;;;5042603;28;20646;-78
2023/03/21 11:00:30;;;;;;;22.42;18.52;;;11.80;99.90;;;;;;5043333;28;20199;-78
2023/03/21 11:02:58;;;;;;;26.20;17.70;;;11.80;99.90;;;;;;5047430;28;20221;-78
2023/03/21 11:05:27;;;;;;;25.00;20.23;;;11.80;99.90;;;;;;5048283;28;20230;-78
2023/03/21 11:08:03;;;;;;;25.90;18.23;;;11.80;99.90;;;;;;5043790;28;20222;-77
2023/03/21 11:10:32;;;;;;;22.20;16.92;;;11.70;99.90;;;;;;5045593;28;20198;-79
2023/03/21 11:13:05;;;;;;;24.42;17.85;;;11.80;99.90;;;;;;5048010;28;20225;-78
2023/03/21 11:15:40;;;;;;;23.52;17.60;;;11.90;99.90;;;;;;5055056;28;20329;-77
2023/03/21 11:18:15;;;;;;;24.67;18.20;;;11.90;99.90;;;;;;5048420;28;20951;-77
2023/03/21 11:20:49;;;;;;;33.42;21.88;;;11.90;99.90;;;;;;5045743;28;20203;-78
2023/03/21 11:23:16;;;;;;;22.77;18.40;;;11.90;99.90;;;;;;5048808;28;20710;-78
2023/03/21 11:25:44;;;;;;;22.85;17.70;;;12.00;99.90;;;;;;5048871;28;20250;-78
2023/03/21 11:28:17;;;;;;;27.25;17.75;;;12.00;99.90;;;;;;5046088;28;20210;-77
2023/03/21 11:30:54;;;;;;;21.65;17.63;;;12.00;99.90;;;;;;5048301;28;20207;-78
2023/03/21 11:33:23;;;;;;;19.50;15.57;;;12.20;99.90;;;;;;5048130;28;20223;-78
2023/03/21 11:36:04;;;;;;;22.10;17.23;;;12.10;99.90;;;;;;5039420;28;20207;-77
2023/03/21 11:38:36;;;;;;;24.20;18.15;;;12.30;99.90;;;;;;5042332;28;20214;-78
2023/03/21 11:41:04;;;;;;;25.70;17.55;;;12.20;99.90;;;;;;5036225;28;20303;-78
2023/03/21 11:43:36;;;;;;;21.00;16.35;;;12.20;99.90;;;;;;5043039;28;20617;-77
2023/03/21 11:46:07;;;;;;;18.75;16.75;;;12.30;99.90;;;;;;5049104;28;20203;-79
2023/03/21 11:48:41;;;;;;;20.55;16.17;;;12.40;99.90;;;;;;5044160;28;20204;-78
2023/03/21 11:51:19;;;;;;;22.27;15.57;;;12.30;99.90;;;;;;5041586;28;20230;-79
2023/03/21 11:53:51;;;;;;;20.52;16.70;;;12.30;99.90;;;;;;5046719;28;20212;-77
2023/03/21 11:56:28;;;;;;;20.75;15.50;;;12.30;99.90;;;;;;5050352;28;20691;-79
2023/03/21 11:59:18;;;;;;;18.73;16.45;;;12.50;99.90;;;;;;5043266;28;20275;-78
2023/03/21 12:02:02;;;;;;;24.13;19.08;;;12.50;99.90;;;;;;5047515;28;20204;-78
2023/03/21 12:04:39;;;;;;;17.40;15.50;;;12.60;99.90;;;;;;5045600;28;20224;-78
2023/03/21 12:07:21;;;;;;;19.95;15.23;;;12.80;99.90;;;;;;5043916;28;20210;-78
2023/03/21 12:09:57;;;;;;;25.58;17.23;;;12.80;99.90;;;;;;5042466;28;20210;-78
2023/03/21 12:12:36;;;;;;;21.25;16.55;;;12.60;99.90;;;;;;5045636;28;20671;-78
2023/03/21 12:15:12;;;;;;;22.50;17.20;;;12.60;99.90;;;;;;5047102;28;20311;-78
2023/03/21 12:17:48;;;;;;;22.75;17.90;;;12.50;99.90;;;;;;5046211;28;20246;-78
2023/03/21 12:20:26;;;;;;;25.98;18.17;;;12.60;99.90;;;;;;5044229;28;20239;-79
2023/03/21 12:23:11;;;;;;;21.42;18.88;;;12.60;99.90;;;;;;5048841;28;20266;-78
2023/03/21 12:25:43;;;;;;;21.20;17.73;;;12.70;99.90;;;;;;5045624;28;20254;-77
2023/03/21 12:28:23;;;;;;;29.50;18.75;;;12.60;99.90;;;;;;5046291;28;20268;-77
2023/03/21 12:31:01;;;;;;;30.13;21.85;;;12.50;99.90;;;;;;5041467;28;20279;-78
2023/03/21 12:33:45;;;;;;;24.30;20.95;;;12.50;99.90;;;;;;5051417;28;20309;-77
2023/03/21 12:36:26;;;;;;;28.80;22.55;;;12.30;99.90;;;;;;5039786;28;20218;-76
2023/03/21 12:39:05;;;;;;;28.55;22.80;;;12.20;99.90;;;;;;5054927;28;20246;-78
2023/03/21 12:41:40;;;;;;;33.38;24.00;;;12.30;99.90;;;;;;5050773;28;20218;-78
2023/03/21 12:44:13;;;;;;;30.45;23.20;;;12.00;99.90;;;;;;5040255;28;20226;-77
2023/03/21 12:46:45;;;;;;;30.15;24.27;;;12.00;99.90;;;;;;5046781;28;20213;-78
2023/03/21 12:49:18;;;;;;;27.30;22.27;;;12.00;99.90;;;;;;5038191;28;20298;-79
2023/03/21 12:51:48;;;;;;;26.70;22.38;;;12.20;99.90;;;;;;5045848;28;20221;-79
2023/03/21 12:54:23;;;;;;;30.55;22.80;;;12.30;99.90;;;;;;5047179;28;20227;-78
2023/03/21 12:56:55;;;;;;;34.33;26.38;;;12.30;99.90;;;;;;5048494;28;20577;-78
2023/03/21 12:59:29;;;;;;;34.13;24.15;;;12.10;99.90;;;;;;5044409;28;20207;-78
2023/03/21 13:02:00;;;;;;;34.72;24.23;;;11.90;99.90;;;;;;5041034;28;20298;-79
2023/03/21 13:04:38;;;;;;;27.88;23.17;;;11.90;99.90;;;;;;5048437;28;20228;-77
2023/03/21 13:07:10;;;;;;;27.60;23.17;;;11.90;99.90;;;;;;5046916;28;20211;-77
2023/03/21 13:09:38;;;;;;;34.15;24.77;;;12.00;99.90;;;;;;5049099;28;20196;-78
2023/03/21 13:12:19;;;;;;;35.30;22.65;;;12.10;99.90;;;;;;5047290;28;20592;-77
2023/03/21 13:14:59;;;;;;;31.33;23.60;;;12.00;99.90;;;;;;5045916;28;20491;-77
2023/03/21 13:17:36;;;;;;;25.90;22.70;;;11.90;99.90;;;;;;5054177;28;20258;-78
2023/03/21 13:20:14;;;;;;;27.75;22.08;;;11.80;99.90;;;;;;5049429;28;20192;-79
2023/03/21 13:22:41;;;;;;;25.77;20.50;;;11.90;99.90;;;;;;5039578;28;20203;-80
2023/03/21 13:25:18;;;;;;;29.95;21.33;;;11.80;99.90;;;;;;5043434;28;20257;-77
2023/03/21 13:27:51;;;;;;;25.95;22.25;;;11.70;99.90;;;;;;5046681;28;20233;-79
2023/03/21 13:30:22;;;;;;;27.67;21.80;;;11.90;99.90;;;;;;5057321;28;20202;-79
2023/03/21 13:32:52;;;;;;;25.25;20.48;;;11.80;99.90;;;;;;5051948;28;20203;-77
2023/03/21 13:35:26;;;;;;;24.05;21.50;;;11.80;99.90;;;;;;5043594;28;20258;-78
2023/03/21 13:37:56;;;;;;;26.00;19.30;;;12.00;99.90;;;;;;5043901;28;20261;-79
2023/03/21 13:40:27;;;;;;;21.80;19.27;;;11.80;99.90;;;;;;5041355;28;20221;-78
2023/03/21 13:42:58;;;;;;;27.25;20.73;;;11.80;99.90;;;;;;5051879;28;20200;-78
2023/03/21 13:45:28;;;;;;;23.85;20.25;;;11.70;99.90;;;;;;5050416;28;20222;-78
2023/03/21 13:47:57;;;;;;;24.10;20.48;;;11.60;99.90;;;;;;5051846;28;20209;-78
2023/03/21 13:50:28;;;;;;;27.17;20.33;;;11.70;99.90;;;;;;5048219;28;20270;-78
2023/03/21 13:53:19;;;;;;;22.92;17.33;;;11.70;99.90;;;;;;5039442;28;20208;-79
2023/03/21 13:55:49;;;;;;;23.67;16.77;;;11.70;99.90;;;;;;5054992;28;20201;-78
2023/03/21 13:58:33;;;;;;;20.80;17.17;;;11.90;99.90;;;;;;5054943;28;20292;-79
2023/03/21 14:01:17;;;;;;;19.17;16.27;;;12.00;99.90;;;;;;5047740;28;20586;-78
2023/03/21 14:03:46;;;;;;;17.83;15.93;;;12.20;99.90;;;;;;5039869;28;20256;-76